Greenwood Village, Colorado
Current Conditions -  °F | °C
As of 4:53 PM on Saturday 25 Oct 2014 (Local Time) from KAPA Reporting Station
Clear Clear  
Wind Chill: 75°   Ceiling: Unl
Heat Index: 75°   Visibility: 10mi
Dew Point: 19°   Wind: 16mph
Humidity: 12%   Direction: 140°SE
Pressure: 30.08"   Gusts: NA
Location:  39.6443°N, 104.983°W
Report Text: KAPA 252253Z 14014KT 10SM CLR 24/M07 A3008 RMK AO2 SLP138 T02391072
Loading
Personal Weather Stations






























Interactive Weather Map
Tropical Storm Tracking
New forecast layout! Learn more

10-Day Weather Forecast

Advertisements
Track Severe Weather on mobile